Clifton, North Dakota
Current Conditions -  °F | °C
As of 10:15 PM on Wednesday 28 Jan 2015 (Local Time) from K5H4 Reporting Station
Overcast Overcast  
Wind Chill: 13°   Ceiling: 1600
Heat Index: 27°   Visibility: 10mi
Dew Point: 27°   Wind: 21mph
Humidity: 100%   Direction: 330°NNW
Pressure: 30.14"   Gusts: 29mph
Location:  47.7181°N, 100.121°W
Report Text: K5H4 290415Z AUTO 33018G25KT 10SM BKN016 OVC028 M03/M03 A3014 RMK AO2
Loading
Personal Weather Stations






























Interactive Weather Map New forecast layout! Learn more

10-Day Weather Forecast

Advertisements
Track Severe Weather on mobile